Time;durP1;ratioP1;P1;durP2;ratioP2;P2;SDS_P1;SDS_P2;PMS_P1;PMS_P2;Temp;Humidity;BMP_temperature;BMP_pressure;BME280_temperature;BME280_humidity;BME280_pressure;Samples;Min_cycle;Max_cycle;Signal;HPM_P1;HPM_P2
2023/04/11 00:02:14;;;;;;;;;0.00;0.00;;;;;9.17;73.60;99215.47;5095760;28;8814;-60
2023/04/11 00:04:42;;;;;;;;;0.75;0.50;;;;;9.17;73.27;99198.69;5095277;28;8818;-60
2023/04/11 00:07:10;;;;;;;;;1.50;1.50;;;;;9.17;73.82;99212.81;5095646;28;8960;-58
2023/04/11 00:09:38;;;;;;;;;0.00;0.00;;;;;9.15;73.67;99204.16;5095927;28;9113;-61
2023/04/11 00:12:06;;;;;;;;;1.00;0.75;;;;;9.16;73.79;99205.81;5095784;28;8818;-59
2023/04/11 00:14:34;;;;;;;;;0.00;0.00;;;;;9.18;73.77;99201.22;5095973;28;8822;-61
2023/04/11 00:17:02;;;;;;;;;1.00;1.00;;;;;9.23;74.12;99198.16;5095780;28;8826;-61
2023/04/11 00:19:32;;;;;;;;;1.00;1.00;;;;;9.24;74.27;99194.53;5096014;28;8810;-59
2023/04/11 00:22:00;;;;;;;;;0.00;0.00;;;;;9.24;74.84;99194.53;5096186;28;8830;-60
2023/04/11 00:24:28;;;;;;;;;1.00;1.00;;;;;9.24;74.18;99194.53;5095755;28;8851;-61
2023/04/11 00:26:56;;;;;;;;;1.00;1.00;;;;;9.24;74.10;99184.75;5095907;28;8837;-60
2023/04/11 00:29:24;;;;;;;;;1.00;1.00;;;;;9.27;74.34;99181.81;5096939;28;8849;-61
2023/04/11 00:31:54;;;;;;;;;0.00;0.00;;;;;9.31;74.68;99185.91;5099241;28;8818;-59
2023/04/11 00:34:22;;;;;;;;;0.75;0.00;;;;;9.34;74.36;99200.75;5099657;28;8949;-60
2023/04/11 00:36:49;;;;;;;;;1.00;1.00;;;;;9.36;74.75;99196.13;5099376;28;8834;-60
2023/04/11 00:39:19;;;;;;;;;0.00;0.00;;;;;9.39;74.33;99199.38;5099545;28;8904;-61
2023/04/11 00:41:46;;;;;;;;;0.00;0.00;;;;;9.41;74.26;99193.94;5099806;28;9545;-60
2023/04/11 00:44:14;;;;;;;;;0.00;0.00;;;;;9.44;74.67;99202.47;5100042;28;8821;-59
2023/04/11 00:46:42;;;;;;;;;0.75;0.75;;;;;9.48;74.19;99185.28;5099376;28;8891;-61
2023/04/11 00:49:12;;;;;;;;;1.00;0.00;;;;;9.52;74.07;99188.50;5099210;28;8837;-59
2023/04/11 00:51:40;;;;;;;;;0.50;0.50;;;;;9.54;74.36;99189.22;5099347;28;9596;-58
2023/04/11 00:54:09;;;;;;;;;0.00;0.00;;;;;9.57;73.86;99189.78;5099587;28;9471;-58
2023/04/11 00:56:37;;;;;;;;;1.50;0.50;;;;;9.64;73.65;99206.06;5099284;28;8941;-61
2023/04/11 00:59:05;;;;;;;;;0.00;0.00;;;;;9.68;73.74;99195.00;5099106;28;8822;-60
2023/04/11 01:01:35;;;;;;;;;0.00;0.00;;;;;9.71;73.60;99199.22;5099003;28;8846;-61
2023/04/11 01:04:03;;;;;;;;;0.00;0.00;;;;;9.72;73.45;99196.41;5098655;28;8814;-61
2023/04/11 01:06:31;;;;;;;;;0.25;0.00;;;;;9.75;73.86;99185.53;5098528;28;8864;-58
2023/04/11 01:08:58;;;;;;;;;0.25;0.25;;;;;9.78;73.63;99184.41;5098893;28;8845;-61
2023/04/11 01:11:26;;;;;;;;;0.00;0.00;;;;;9.82;73.74;99185.81;5099182;28;8830;-59
2023/04/11 01:13:54;;;;;;;;;0.00;0.00;;;;;9.83;73.58;99187.50;5098727;28;8822;-61
2023/04/11 01:16:22;;;;;;;;;1.00;1.00;;;;;9.87;73.51;99197.72;5098547;28;8814;-59
2023/04/11 01:18:49;;;;;;;;;0.00;0.00;;;;;9.91;73.38;99188.50;5098879;28;8830;-60
2023/04/11 01:21:18;;;;;;;;;0.00;0.00;;;;;9.96;73.59;99186.25;5098551;28;8834;-60
2023/04/11 01:23:47;;;;;;;;;0.00;0.00;;;;;9.99;73.34;99180.69;5098873;28;8814;-58
2023/04/11 01:26:15;;;;;;;;;0.25;0.25;;;;;10.01;72.85;99180.56;5098600;28;9507;-59
2023/04/11 01:28:43;;;;;;;;;0.00;0.00;;;;;10.00;73.25;99171.72;5098406;28;9734;-60
2023/04/11 01:31:10;;;;;;;;;0.75;0.75;;;;;10.01;73.06;99176.06;5098081;28;9559;-60
2023/04/11 01:33:38;;;;;;;;;1.00;0.00;;;;;10.01;73.12;99170.75;5098014;28;9507;-61
2023/04/11 01:36:06;;;;;;;;;0.50;0.00;;;;;9.99;73.18;99163.88;5098467;28;8825;-60
2023/04/11 01:38:34;;;;;;;;;0.00;0.00;;;;;9.96;73.26;99151.69;5098417;28;8932;-61
2023/04/11 01:41:02;;;;;;;;;1.00;1.00;;;;;9.95;73.14;99155.31;5097507;28;8814;-60
2023/04/11 01:43:30;;;;;;;;;0.00;0.00;;;;;9.96;73.34;99161.50;5098382;28;9531;-60
2023/04/11 01:45:57;;;;;;;;;0.50;0.50;;;;;9.93;72.86;99149.31;5098216;28;8826;-60
2023/04/11 01:48:25;;;;;;;;;0.00;0.00;;;;;9.91;73.35;99164.56;5097898;28;8821;-60
2023/04/11 01:50:54;;;;;;;;;0.00;0.00;;;;;9.92;73.19;99155.63;5098184;28;8810;-61
2023/04/11 01:53:22;;;;;;;;;0.00;0.00;;;;;9.93;73.13;99156.47;5098380;28;9500;-60
2023/04/11 01:55:49;;;;;;;;;1.00;0.75;;;;;9.93;73.38;99145.81;5098082;28;8826;-61
2023/04/11 01:58:17;;;;;;;;;1.00;1.00;;;;;9.92;73.28;99150.28;5097937;28;8834;-60
2023/04/11 02:00:45;;;;;;;;;0.00;0.00;;;;;9.93;73.13;99151.16;5098047;28;8866;-60
2023/04/11 02:03:13;;;;;;;;;1.00;1.00;;;;;9.94;73.08;99140.34;5097865;28;9602;-60
2023/04/11 02:05:41;;;;;;;;;1.50;1.00;;;;;9.91;73.18;99143.28;5098019;28;8956;-61
2023/04/11 02:08:09;;;;;;;;;3.00;2.50;;;;;9.87;72.96;99149.84;5097725;28;8826;-61
2023/04/11 02:10:37;;;;;;;;;0.00;0.00;;;;;9.86;72.83;99148.19;5097591;28;8846;-60
2023/04/11 02:13:05;;;;;;;;;0.75;0.75;;;;;9.86;73.35;99145.50;5097515;28;8848;-60
2023/04/11 02:15:33;;;;;;;;;1.00;0.75;;;;;9.86;73.19;99161.47;5097521;28;8832;-60
2023/04/11 02:18:00;;;;;;;;;0.00;0.00;;;;;9.82;73.29;99162.75;5097222;28;8821;-60
2023/04/11 02:20:28;;;;;;;;;1.00;1.00;;;;;9.78;72.83;99156.00;5097099;28;8814;-61
2023/04/11 02:22:57;;;;;;;;;1.00;1.00;;;;;9.72;73.54;99153.06;5097305;28;8821;-60
2023/04/11 02:25:25;;;;;;;;;1.00;1.00;;;;;9.67;73.32;99160.59;5097706;28;8826;-60
2023/04/11 02:27:54;;;;;;;;;0.00;0.00;;;;;9.63;73.07;99164.50;5097290;28;8834;-60
2023/04/11 02:30:21;;;;;;;;;0.00;0.00;;;;;9.62;73.53;99168.09;5097186;28;8845;-61
2023/04/11 02:32:49;;;;;;;;;1.00;1.00;;;;;9.66;73.43;99174.84;5097271;28;8817;-61
2023/04/11 02:35:16;;;;;;;;;0.25;0.00;;;;;9.67;72.91;99174.72;5097152;28;8846;-60
2023/04/11 02:37:44;;;;;;;;;0.50;0.50;;;;;9.58;73.17;99175.50;5097057;28;8895;-61
2023/04/11 02:40:12;;;;;;;;;1.00;1.00;;;;;9.46;73.39;99175.75;5097153;28;8872;-60
2023/04/11 02:42:41;;;;;;;;;1.00;1.00;;;;;9.35;74.25;99171.38;5097403;28;8818;-61
2023/04/11 02:45:10;;;;;;;;;3.00;3.00;;;;;9.29;74.09;99177.25;5096517;28;8822;-60
2023/04/11 02:47:38;;;;;;;;;0.75;0.75;;;;;9.24;74.28;99187.41;5097009;28;8891;-61
2023/04/11 02:50:06;;;;;;;;;1.50;1.50;;;;;9.22;73.85;99192.03;5096213;28;8810;-60
2023/04/11 02:52:34;;;;;;;;;0.00;0.00;;;;;9.22;73.86;99194.69;5096639;28;8822;-60
2023/04/11 02:55:02;;;;;;;;;3.25;1.50;;;;;9.22;73.92;99186.72;5096910;28;8817;-59
2023/04/11 02:57:30;;;;;;;;;2.00;1.00;;;;;9.22;73.69;99185.84;5096310;28;8806;-60
2023/04/11 02:59:57;;;;;;;;;3.00;3.00;;;;;9.22;74.32;99176.09;5096602;28;8834;-60
2023/04/11 03:02:25;;;;;;;;;3.00;3.00;;;;;9.26;73.66;99182.78;5096732;28;8826;-60
2023/04/11 03:04:53;;;;;;;;;3.50;3.50;;;;;9.30;73.64;99183.38;5096900;28;9484;-59
2023/04/11 03:07:21;;;;;;;;;1.00;1.00;;;;;9.34;73.27;99185.63;5096559;28;8818;-58
2023/04/11 03:09:49;;;;;;;;;1.00;1.00;;;;;9.36;73.39;99189.03;5096372;28;8841;-58
2023/04/11 03:12:18;;;;;;;;;2.50;1.00;;;;;9.39;73.17;99198.50;5096538;28;8868;-60
2023/04/11 03:14:46;;;;;;;;;5.25;3.50;;;;;9.39;73.33;99202.03;5096528;28;9496;-61
2023/04/11 03:17:14;;;;;;;;;4.00;2.00;;;;;9.40;73.45;99201.03;5096102;28;8822;-58
2023/04/11 03:19:42;;;;;;;;;1.00;1.00;;;;;9.41;73.33;99202.72;5095935;28;8802;-60
2023/04/11 03:22:09;;;;;;;;;1.00;1.00;;;;;9.38;73.19;99208.31;5096511;28;8822;-60
2023/04/11 03:24:38;;;;;;;;;3.50;2.00;;;;;9.35;72.86;99203.25;5096412;28;8810;-60
2023/04/11 03:27:06;;;;;;;;;1.00;1.00;;;;;9.31;73.10;99206.31;5096186;28;8814;-60
2023/04/11 03:29:34;;;;;;;;;5.00;3.50;;;;;9.29;73.14;99205.59;5095869;28;8910;-60
2023/04/11 03:32:01;;;;;;;;;1.00;1.00;;;;;9.27;73.29;99213.69;5095875;28;9480;-60
2023/04/11 03:34:30;;;;;;;;;2.50;2.50;;;;;9.28;73.03;99212.72;5095907;28;8849;-59
2023/04/11 03:36:57;;;;;;;;;4.00;4.00;;;;;9.33;73.07;99213.19;5095537;28;8806;-60
2023/04/11 03:39:25;;;;;;;;;3.00;3.00;;;;;9.31;73.20;99208.97;5095511;28;8857;-60
2023/04/11 03:41:53;;;;;;;;;1.00;1.00;;;;;9.18;73.25;99209.19;5096451;28;8814;-59
2023/04/11 03:44:20;;;;;;;;;2.00;1.00;;;;;9.03;73.32;99213.16;5096047;28;8834;-58
2023/04/11 03:46:48;;;;;;;;;3.00;1.50;;;;;8.94;73.58;99213.94;5095908;28;8830;-60
2023/04/11 03:49:16;;;;;;;;;1.50;1.50;;;;;8.89;74.23;99216.13;5095162;28;8821;-60
2023/04/11 03:51:44;;;;;;;;;3.00;2.00;;;;;8.86;74.46;99218.19;5095641;28;8821;-60
2023/04/11 03:54:11;;;;;;;;;2.50;2.50;;;;;8.87;74.57;99217.22;5095739;28;8830;-59
2023/04/11 03:56:39;;;;;;;;;5.00;3.00;;;;;8.87;74.16;99219.88;5095448;28;8842;-61
2023/04/11 03:59:07;;;;;;;;;2.50;1.00;;;;;8.86;73.61;99218.19;5095234;28;8822;-60
2023/04/11 04:01:36;;;;;;;;;2.00;1.50;;;;;8.85;73.85;99219.16;5095419;28;9472;-60
2023/04/11 04:04:06;;;;;;;;;3.00;3.00;;;;;8.85;73.97;99220.03;5096497;28;8852;-58
2023/04/11 04:06:34;;;;;;;;;2.75;2.75;;;;;8.83;73.72;99219.28;5099321;28;8834;-60
2023/04/11 04:09:03;;;;;;;;;3.00;1.00;;;;;8.84;73.69;99228.09;5099373;28;8822;-61
2023/04/11 04:11:30;;;;;;;;;1.00;1.00;;;;;8.83;73.82;99237.88;5099354;28;8822;-59
2023/04/11 04:13:58;;;;;;;;;2.50;1.00;;;;;8.82;73.82;99235.38;5098901;28;8842;-58
2023/04/11 04:16:26;;;;;;;;;3.00;3.00;;;;;8.78;73.50;99228.63;5099398;28;8923;-60
2023/04/11 04:18:55;;;;;;;;;0.75;0.25;;;;;8.73;74.09;99231.66;5098814;28;8818;-58
2023/04/11 04:21:25;;;;;;;;;1.00;1.00;;;;;8.72;74.07;99229.97;5098880;28;8829;-60
2023/04/11 04:23:53;;;;;;;;;3.50;2.25;;;;;8.70;73.74;99231.06;5099195;28;8886;-60
2023/04/11 04:26:23;;;;;;;;;1.00;1.00;;;;;8.73;73.82;99244.09;5098438;28;8834;-60
2023/04/11 04:28:52;;;;;;;;;3.75;3.75;;;;;8.75;73.72;99252.78;5098655;28;8879;-60
2023/04/11 04:31:24;;;;;;;;;0.00;0.00;;;;;8.66;73.64;99246.41;5098629;28;8860;-61
2023/04/11 04:33:52;;;;;;;;;1.50;1.00;;;;;8.53;73.82;99244.91;5098035;28;8850;-60
2023/04/11 04:36:20;;;;;;;;;3.25;3.25;;;;;8.44;74.50;99246.47;5097841;28;8919;-60
2023/04/11 04:38:47;;;;;;;;;0.50;0.00;;;;;8.39;74.50;99239.88;5098226;28;8853;-60
2023/04/11 04:41:20;;;;;;;;;1.50;1.50;;;;;8.32;74.60;99247.50;5098419;28;8818;-60
2023/04/11 04:43:48;;;;;;;;;2.50;2.50;;;;;8.27;74.70;99249.69;5098382;28;8841;-59
2023/04/11 04:46:16;;;;;;;;;1.40;1.40;;;;;8.23;74.50;99237.66;5098642;28;8818;-60
2023/04/11 04:48:44;;;;;;;;;0.50;0.25;;;;;8.21;74.90;99236.09;5098113;28;8813;-60
2023/04/11 04:51:11;;;;;;;;;1.00;1.00;;;;;8.20;74.97;99240.53;5099037;28;8846;-60
2023/04/11 04:53:39;;;;;;;;;4.00;3.20;;;;;8.22;74.43;99240.41;5098864;28;8834;-60
2023/04/11 04:56:07;;;;;;;;;3.00;2.00;;;;;8.25;74.48;99256.94;5098679;28;8864;-61
2023/04/11 04:58:35;;;;;;;;;2.00;1.00;;;;;8.33;74.63;99249.19;5098775;28;8814;-60
2023/04/11 05:01:03;;;;;;;;;3.25;3.25;;;;;8.44;74.28;99250.97;5098398;28;8850;-61
2023/04/11 05:03:34;;;;;;;;;2.00;1.00;;;;;8.36;74.29;99254.22;5098376;28;8829;-61
2023/04/11 05:06:02;;;;;;;;;2.00;2.00;;;;;8.28;74.70;99259.31;5098928;28;8852;-61
2023/04/11 05:08:30;;;;;;;;;3.00;1.00;;;;;8.23;75.08;99258.88;5098532;28;8810;-61
2023/04/11 05:10:58;;;;;;;;;2.20;1.80;;;;;8.20;74.91;99258.28;5097860;28;8872;-59
2023/04/11 05:13:25;;;;;;;;;2.50;2.50;;;;;8.16;74.89;99273.56;5097948;28;8861;-61
2023/04/11 05:15:53;;;;;;;;;3.25;3.25;;;;;8.17;75.04;99272.59;5096949;28;8825;-60
2023/04/11 05:18:21;;;;;;;;;4.00;3.00;;;;;8.20;74.94;99282.13;5097899;28;8790;-58
2023/04/11 05:20:50;;;;;;;;;4.00;3.25;;;;;8.26;74.66;99284.28;5097371;28;8798;-60
2023/04/11 05:23:18;;;;;;;;;4.50;3.25;;;;;8.33;74.37;99282.81;5098059;28;8846;-59
2023/04/11 05:25:45;;;;;;;;;5.00;5.00;;;;;8.42;73.80;99287.38;5098421;28;8853;-60
2023/04/11 05:28:13;;;;;;;;;4.00;4.00;;;;;8.52;74.08;99283.03;5097728;28;8829;-60
2023/04/11 05:30:41;;;;;;;;;3.00;2.00;;;;;8.62;73.61;99281.28;5098144;28;9515;-60
2023/04/11 05:33:11;;;;;;;;;4.00;4.00;;;;;8.71;73.47;99285.81;5096871;28;8883;-61
2023/04/11 05:35:39;;;;;;;;;3.25;3.25;;;;;8.67;73.42;99301.16;5096847;28;8833;-59
2023/04/11 05:38:08;;;;;;;;;3.00;3.00;;;;;8.54;73.94;99303.16;5097156;28;8814;-60
2023/04/11 05:40:36;;;;;;;;;5.00;4.00;;;;;8.46;73.93;99310.03;5097217;28;8830;-59
2023/04/11 05:43:05;;;;;;;;;5.50;4.50;;;;;8.41;74.27;99304.25;5096786;28;8822;-60
2023/04/11 05:45:32;;;;;;;;;3.25;3.00;;;;;8.40;73.87;99306.09;5096944;28;8837;-59
2023/04/11 05:48:00;;;;;;;;;2.50;1.50;;;;;8.41;74.06;99315.72;5097053;28;8838;-59
2023/04/11 05:50:28;;;;;;;;;4.50;4.00;;;;;8.42;73.77;99312.09;5097081;28;8834;-58
2023/04/11 05:52:56;;;;;;;;;3.25;3.00;;;;;8.48;73.70;99314.25;5096711;28;8833;-58
2023/04/11 05:55:24;;;;;;;;;4.00;4.00;;;;;8.54;73.74;99316.41;5096730;28;8842;-60
2023/04/11 05:57:51;;;;;;;;;4.25;3.50;;;;;8.60;73.63;99318.56;5096082;28;8842;-60
2023/04/11 06:00:19;;;;;;;;;3.00;3.00;;;;;8.67;73.21;99321.56;5095980;28;8891;-60
2023/04/11 06:02:47;;;;;;;;;1.00;1.00;;;;;8.73;73.08;99321.06;5095694;28;8850;-60
2023/04/11 06:05:16;;;;;;;;;3.00;3.00;;;;;8.81;73.06;99324.75;5095741;28;8906;-60
2023/04/11 06:07:45;;;;;;;;;3.00;3.00;;;;;8.87;72.93;99328.72;5095616;28;8845;-60
2023/04/11 06:10:12;;;;;;;;;1.00;1.00;;;;;8.90;72.50;99329.31;5095696;28;8836;-60
2023/04/11 06:12:40;;;;;;;;;1.50;1.50;;;;;8.93;72.44;99326.41;5095849;28;8821;-60
2023/04/11 06:15:10;;;;;;;;;3.75;3.50;;;;;8.93;72.35;99323.75;5096310;28;8818;-61
2023/04/11 06:17:38;;;;;;;;;3.50;3.50;;;;;8.92;72.89;99331.84;5096931;28;8854;-60
2023/04/11 06:20:06;;;;;;;;;2.50;2.50;;;;;8.93;71.96;99333.53;5096929;28;8826;-60
2023/04/11 06:22:34;;;;;;;;;1.00;1.00;;;;;8.98;72.41;99332.16;5096251;28;8855;-61
2023/04/11 06:25:01;;;;;;;;;3.50;3.50;;;;;9.08;72.06;99341.09;5096557;28;9499;-61
2023/04/11 06:27:30;;;;;;;;;3.00;3.00;;;;;9.17;71.67;99342.09;5095366;28;8942;-61
2023/04/11 06:29:57;;;;;;;;;1.50;1.00;;;;;9.36;71.63;99340.47;5095971;28;8984;-60
2023/04/11 06:32:26;;;;;;;;;1.50;1.50;;;;;9.56;70.69;99354.72;5096177;28;8829;-61
2023/04/11 06:34:54;;;;;;;;;3.75;3.75;;;;;9.74;70.67;99340.72;5096169;28;8826;-59
2023/04/11 06:37:21;;;;;;;;;3.00;1.00;;;;;9.83;70.46;99345.22;5096108;28;8940;-60
2023/04/11 06:39:49;;;;;;;;;4.00;3.00;;;;;9.86;69.92;99346.78;5095421;28;8835;-60
2023/04/11 06:42:17;;;;;;;;;1.00;0.75;;;;;9.84;70.42;99367.31;5096294;28;8842;-60
2023/04/11 06:44:45;;;;;;;;;2.50;2.00;;;;;9.83;70.19;99366.50;5096107;28;8825;-60
2023/04/11 06:47:12;;;;;;;;;6.00;3.00;;;;;9.88;70.04;99361.59;5095172;28;8857;-60
2023/04/11 06:49:40;;;;;;;;;1.00;1.00;;;;;9.94;69.48;99374.38;5094953;28;8862;-60
2023/04/11 06:52:08;;;;;;;;;0.00;0.00;;;;;10.04;69.76;99372.66;5094294;28;8845;-59
2023/04/11 06:54:36;;;;;;;;;1.50;1.50;;;;;10.09;69.21;99374.94;5093772;28;8932;-61
2023/04/11 06:57:04;;;;;;;;;2.00;2.00;;;;;10.11;69.27;99380.94;5093637;28;8838;-60
2023/04/11 06:59:33;;;;;;;;;3.00;1.50;;;;;10.04;69.69;99388.63;5093442;28;8849;-60
2023/04/11 07:02:01;;;;;;;;;3.25;2.50;;;;;9.95;69.40;99383.22;5093337;28;8857;-60
2023/04/11 07:04:29;;;;;;;;;3.75;3.25;;;;;9.86;69.90;99400.78;5093754;28;9721;-59
2023/04/11 07:06:58;;;;;;;;;4.25;3.00;;;;;9.92;69.64;99394.09;5094410;28;8821;-60
2023/04/11 07:09:26;;;;;;;;;3.75;3.75;;;;;10.02;69.77;99381.72;5094277;28;8960;-61
2023/04/11 07:11:55;;;;;;;;;2.00;1.50;;;;;10.14;69.03;99397.50;5094132;28;8826;-60
2023/04/11 07:14:22;;;;;;;;;4.50;4.00;;;;;10.24;69.21;99397.53;5094227;28;8885;-59
2023/04/11 07:16:50;;;;;;;;;4.00;3.00;;;;;10.36;68.66;99394.66;5094334;28;8844;-60
2023/04/11 07:19:18;;;;;;;;;3.50;2.25;;;;;10.41;68.73;99403.06;5093879;28;9511;-60
2023/04/11 07:21:47;;;;;;;;;4.00;3.00;;;;;10.35;68.55;99408.06;5089105;28;8830;-59
2023/04/11 07:24:17;;;;;;;;;6.75;3.75;;;;;10.35;68.81;99413.41;5075901;28;8836;-60
2023/04/11 07:26:45;;;;;;;;;6.00;6.00;;;;;10.39;68.52;99415.66;5093554;28;8822;-59
2023/04/11 07:29:13;;;;;;;;;1.00;1.00;;;;;10.43;68.02;99417.09;5085465;28;8959;-60
2023/04/11 07:31:43;;;;;;;;;3.00;3.00;;;;;10.52;68.24;99412.75;5075529;28;8904;-58
2023/04/11 07:34:11;;;;;;;;;3.00;3.00;;;;;10.61;67.61;99404.81;5087958;28;8907;-60
2023/04/11 07:36:40;;;;;;;;;3.25;3.25;;;;;10.61;67.71;99418.13;5094730;28;9593;-60
2023/04/11 07:39:12;;;;;;;;;3.00;2.00;;;;;10.75;67.80;99419.56;5093720;28;9502;-60
2023/04/11 07:41:40;;;;;;;;;3.00;3.00;;;;;10.75;67.04;99417.75;5093985;28;9735;-61
2023/04/11 07:44:08;;;;;;;;;1.00;1.00;;;;;10.83;66.90;99417.91;5094071;28;8972;-61
2023/04/11 07:46:36;;;;;;;;;3.00;3.00;;;;;10.91;66.91;99419.91;5093315;28;8814;-61
2023/04/11 07:49:04;;;;;;;;;2.00;2.00;;;;;11.02;66.61;99422.44;5093464;28;8830;-61
2023/04/11 07:51:32;;;;;;;;;4.00;3.50;;;;;11.20;66.32;99424.28;5093340;28;8849;-60
2023/04/11 07:54:00;;;;;;;;;2.00;2.00;;;;;11.23;65.93;99433.84;5092215;28;8860;-61
2023/04/11 07:56:28;;;;;;;;;1.00;1.00;;;;;11.24;66.18;99436.34;5074033;28;8948;-59
2023/04/11 07:58:57;;;;;;;;;3.75;3.00;;;;;11.20;65.91;99442.94;5073543;28;8843;-61
2023/04/11 08:01:25;;;;;;;;;3.00;3.00;;;;;11.17;65.50;99453.91;5079566;28;8852;-61
2023/04/11 08:03:53;;;;;;;;;1.00;1.00;;;;;11.09;65.68;99440.38;5094266;28;8822;-60
2023/04/11 08:06:22;;;;;;;;;1.50;1.00;;;;;11.17;65.56;99439.72;5094006;28;8872;-59
2023/04/11 08:08:50;;;;;;;;;3.25;3.25;;;;;11.25;65.62;99448.72;5093272;28;8829;-60
2023/04/11 08:11:18;;;;;;;;;1.00;1.00;;;;;11.33;64.81;99432.88;5093620;28;9558;-60
2023/04/11 08:13:46;;;;;;;;;3.00;3.00;;;;;11.35;65.20;99454.03;5093372;28;8979;-60
2023/04/11 08:16:14;;;;;;;;;3.00;3.00;;;;;11.23;64.46;99449.84;5093990;28;8944;-60
2023/04/11 08:18:44;;;;;;;;;4.00;4.00;;;;;11.22;64.43;99440.16;5093448;28;8833;-58
2023/04/11 08:21:12;;;;;;;;;3.00;2.00;;;;;11.20;64.70;99447.41;5092680;28;9560;-59
2023/04/11 08:23:41;;;;;;;;;0.25;0.25;;;;;11.27;64.60;99446.75;5073025;28;8851;-60
2023/04/11 08:26:10;;;;;;;;;0.50;0.50;;;;;11.28;64.31;99451.09;5073106;28;8986;-61
2023/04/11 08:28:38;;;;;;;;;1.00;1.00;;;;;11.29;64.33;99452.78;5077609;28;8846;-58
2023/04/11 08:31:11;;;;;;;;;3.00;3.00;;;;;11.36;64.49;99453.09;5092479;28;8935;-61
2023/04/11 08:33:40;;;;;;;;;1.00;1.00;;;;;11.35;64.14;99454.88;5092986;28;8837;-60
2023/04/11 08:36:08;;;;;;;;;1.00;1.00;;;;;11.35;63.88;99454.88;5093210;28;8836;-61
2023/04/11 08:38:37;;;;;;;;;1.00;1.00;;;;;11.35;64.29;99460.22;5094040;28;8832;-61
2023/04/11 08:41:05;;;;;;;;;1.00;1.00;;;;;11.34;63.65;99455.88;5094068;28;9618;-61
2023/04/11 08:43:33;;;;;;;;;1.00;1.00;;;;;11.31;63.69;99448.13;5094187;28;8822;-60
2023/04/11 08:46:01;;;;;;;;;3.00;3.00;;;;;11.35;63.81;99459.38;5094131;28;9487;-61
2023/04/11 08:48:30;;;;;;;;;1.50;1.50;;;;;11.40;63.54;99462.47;5094068;28;8931;-61
2023/04/11 08:50:59;;;;;;;;;3.00;2.00;;;;;11.61;63.29;99456.03;5096482;28;8822;-61
2023/04/11 08:53:27;;;;;;;;;0.75;0.75;;;;;11.82;63.06;99456.75;5097480;28;8824;-59
2023/04/11 08:55:54;;;;;;;;;4.00;3.00;;;;;11.92;62.62;99465.59;5097046;28;8832;-60
2023/04/11 08:58:22;;;;;;;;;4.00;4.00;;;;;11.95;62.44;99473.31;5097560;28;8829;-61
2023/04/11 09:00:50;;;;;;;;;4.50;4.00;;;;;11.99;62.30;99467.53;5096840;28;9521;-61
2023/04/11 09:03:19;;;;;;;;;1.00;1.00;;;;;11.93;61.95;99456.63;5097433;28;8840;-58
2023/04/11 09:05:47;;;;;;;;;3.00;3.00;;;;;11.99;61.84;99482.69;5097490;28;8849;-61
2023/04/11 09:08:15;;;;;;;;;3.75;3.00;;;;;12.20;61.27;99470.03;5097232;28;8826;-60
2023/04/11 09:10:43;;;;;;;;;2.00;0.75;;;;;12.27;61.59;99468.47;5097213;28;8841;-58
2023/04/11 09:13:12;;;;;;;;;0.00;0.00;;;;;12.33;61.05;99467.91;5097496;28;8914;-60
2023/04/11 09:15:40;;;;;;;;;3.00;3.00;;;;;12.25;60.92;99478.47;5097021;28;8916;-61
2023/04/11 09:18:08;;;;;;;;;3.00;1.50;;;;;12.43;60.47;99477.56;5097448;28;8864;-61
2023/04/11 09:20:36;;;;;;;;;3.50;3.00;;;;;12.68;59.84;99468.06;5096838;28;8899;-59
2023/04/11 09:23:04;;;;;;;;;3.25;3.25;;;;;12.72;60.03;99472.97;5076709;28;8840;-59
2023/04/11 09:25:32;;;;;;;;;1.00;1.00;;;;;12.85;59.48;99459.28;5076804;28;8854;-60
2023/04/11 09:28:00;;;;;;;;;3.50;3.25;;;;;12.80;59.31;99477.56;5076801;28;8958;-60
2023/04/11 09:30:30;;;;;;;;;2.00;2.00;;;;;12.68;59.61;99476.09;5075270;28;8867;-59
2023/04/11 09:32:58;;;;;;;;;3.00;3.00;;;;;12.78;59.49;99484.91;5074574;28;8832;-60
2023/04/11 09:35:27;;;;;;;;;5.50;3.50;;;;;12.97;58.99;99476.81;5074853;28;8836;-61
2023/04/11 09:37:55;;;;;;;;;5.00;3.00;;;;;13.06;58.99;99466.06;5075139;28;9524;-61
2023/04/11 09:40:23;;;;;;;;;3.00;3.00;;;;;13.08;57.87;99471.28;5074990;28;8975;-61
2023/04/11 09:42:52;;;;;;;;;1.00;1.00;;;;;13.08;58.32;99458.72;5075482;28;8843;-61
2023/04/11 09:45:20;;;;;;;;;3.50;3.50;;;;;13.17;57.54;99468.56;5080186;28;8832;-60
2023/04/11 09:47:48;;;;;;;;;4.00;4.00;;;;;13.19;57.82;99471.06;5096436;28;8947;-61
2023/04/11 09:50:16;;;;;;;;;1.00;1.00;;;;;13.13;57.82;99463.66;5096046;28;8834;-60
2023/04/11 09:52:44;;;;;;;;;3.67;3.00;;;;;13.03;57.75;99471.72;5095847;28;8834;-60
2023/04/11 09:55:13;;;;;;;;;2.50;2.50;;;;;12.93;58.39;99464.72;5096469;28;9479;-59
2023/04/11 09:57:40;;;;;;;;;2.00;2.00;;;;;13.30;57.80;99479.72;5094910;28;8833;-58
2023/04/11 10:00:13;;;;;;;;;1.75;1.75;;;;;13.49;57.16;99460.88;5095135;28;8865;-59
2023/04/11 10:02:41;;;;;;;;;3.00;2.50;;;;;13.95;56.31;99457.09;5093280;28;8835;-60
2023/04/11 10:05:12;;;;;;;;;1.50;1.50;;;;;14.77;54.27;99453.81;5094535;28;8868;-60
2023/04/11 10:07:40;;;;;;;;;3.00;3.00;;;;;15.45;52.91;99454.59;5094441;28;8980;-61
2023/04/11 10:10:08;;;;;;;;;0.50;0.50;;;;;15.48;52.34;99462.31;5094725;28;8946;-60
2023/04/11 10:12:36;;;;;;;;;2.00;2.00;;;;;15.21;52.83;99462.53;5094479;28;8830;-61
2023/04/11 10:15:04;;;;;;;;;4.00;3.00;;;;;15.23;52.65;99471.25;5093745;28;8965;-59
2023/04/11 10:17:32;;;;;;;;;1.50;1.50;;;;;15.27;52.96;99472.63;5094006;28;8825;-60
2023/04/11 10:20:00;;;;;;;;;3.25;2.50;;;;;15.01;53.15;99482.59;5095316;28;9805;-58
2023/04/11 10:22:28;;;;;;;;;4.50;4.50;;;;;14.55;53.15;99478.50;5094317;28;9047;-60
2023/04/11 10:24:56;;;;;;;;;4.00;4.00;;;;;15.09;53.04;99485.31;5095352;28;8915;-59
2023/04/11 10:27:25;;;;;;;;;3.75;3.75;;;;;16.07;50.74;99475.47;5094162;28;8936;-59
2023/04/11 10:29:53;;;;;;;;;3.00;3.00;;;;;16.05;51.01;99491.75;5093126;28;8865;-60
2023/04/11 10:32:21;;;;;;;;;3.25;3.00;;;;;15.77;51.10;99473.44;5093626;28;8838;-59
2023/04/11 10:34:49;;;;;;;;;1.00;1.00;;;;;16.15;50.76;99480.84;5093994;28;8952;-60
2023/04/11 10:37:18;;;;;;;;;3.75;3.25;;;;;16.25;49.96;99482.34;5093246;28;8857;-61
2023/04/11 10:39:46;;;;;;;;;3.00;3.00;;;;;16.72;48.65;99483.31;5092960;28;8836;-60
2023/04/11 10:42:15;;;;;;;;;3.00;3.00;;;;;17.17;48.20;99473.56;5092233;28;8842;-59
2023/04/11 10:44:43;;;;;;;;;4.00;4.00;;;;;17.34;48.05;99471.63;5092993;28;8860;-60
2023/04/11 10:47:11;;;;;;;;;4.00;4.00;;;;;17.90;47.10;99485.63;5093915;28;8976;-60
2023/04/11 10:49:39;;;;;;;;;3.20;3.20;;;;;18.15;47.19;99479.00;5093673;28;8906;-61
2023/04/11 10:52:07;;;;;;;;;6.20;6.20;;;;;18.31;46.59;99478.06;5094386;28;8825;-59
2023/04/11 10:54:36;;;;;;;;;3.00;3.00;;;;;18.06;46.79;99474.72;5094921;28;8822;-59
2023/04/11 10:57:04;;;;;;;;;4.00;4.00;;;;;18.19;47.17;99480.34;5094035;28;8838;-60
2023/04/11 10:59:33;;;;;;;;;4.00;4.00;;;;;18.90;46.15;99474.44;5094201;28;8849;-59
2023/04/11 11:02:01;;;;;;;;;5.20;5.20;;;;;19.11;45.41;99464.53;5094300;28;8907;-60
2023/04/11 11:04:30;;;;;;;;;6.00;4.80;;;;;19.37;45.10;99466.78;5094759;28;8845;-61
2023/04/11 11:06:58;;;;;;;;;4.80;4.00;;;;;19.92;43.46;99464.28;5094814;28;8852;-59
2023/04/11 11:09:27;;;;;;;;;6.00;5.60;;;;;20.41;43.08;99479.53;5094833;28;9535;-60
2023/04/11 11:11:56;;;;;;;;;3.60;3.20;;;;;20.78;41.96;99465.66;5094400;28;8830;-60
2023/04/11 11:14:24;;;;;;;;;3.80;3.80;;;;;20.85;41.56;99463.81;5094166;28;8842;-61
2023/04/11 11:16:52;;;;;;;;;2.40;2.40;;;;;20.63;41.30;99467.63;5094703;28;8837;-59
2023/04/11 11:19:21;;;;;;;;;1.00;1.00;;;;;20.85;41.29;99472.78;5093784;28;8984;-62
2023/04/11 11:21:49;;;;;;;;;3.00;3.00;;;;;20.96;40.23;99469.53;5093299;28;8899;-61
2023/04/11 11:24:17;;;;;;;;;1.00;1.00;;;;;21.10;40.46;99486.72;5093444;28;8830;-61
2023/04/11 11:26:45;;;;;;;;;4.00;4.00;;;;;21.39;39.50;99471.03;5094840;28;8848;-60
2023/04/11 11:29:14;;;;;;;;;1.20;1.20;;;;;21.61;39.26;99477.13;5094651;28;8872;-62
2023/04/11 11:31:44;;;;;;;;;1.80;1.80;;;;;21.58;39.08;99475.69;5094737;28;8838;-61
2023/04/11 11:34:12;;;;;;;;;1.20;1.20;;;;;21.47;38.38;99475.41;5094845;28;8830;-60
2023/04/11 11:36:51;;;;;;;;;4.00;3.40;;;;;21.58;37.73;99478.41;5094723;28;8822;-61
2023/04/11 11:39:20;;;;;;;;;2.00;2.00;;;;;22.08;37.51;99477.09;5094734;28;8826;-62
2023/04/11 11:41:50;;;;;;;;;4.00;4.00;;;;;22.35;36.97;99476.06;5093794;28;8825;-63
2023/04/11 11:44:18;;;;;;;;;4.00;3.60;;;;;21.76;37.61;99488.69;5093748;28;8834;-62
2023/04/11 11:46:46;;;;;;;;;1.20;1.20;;;;;20.92;38.75;99495.38;5093640;28;8861;-62
2023/04/11 11:49:14;;;;;;;;;4.20;4.00;;;;;20.55;39.43;99499.44;5092872;28;8838;-62
2023/04/11 11:51:43;;;;;;;;;5.20;4.60;;;;;19.69;40.13;99514.94;5092727;28;8856;-60